Time;durP1;ratioP1;P1;durP2;ratioP2;P2;SDS_P1;SDS_P2;PMS_P1;PMS_P2;Temp;Humidity;BMP_temperature;BMP_pressure;BME280_temperature;BME280_humidity;BME280_pressure;Samples;Min_cycle;Max_cycle;Signal;HPM_P1;HPM_P2
2023/10/05 00:00:46;;;;;;;5.53;2.45;;;16.40;65.60;;;;;;4989493;28;20516;-48
2023/10/05 00:03:02;;;;;;;5.68;2.58;;;16.40;65.70;;;;;;4986122;28;20105;-48
2023/10/05 00:05:37;;;;;;;4.65;2.63;;;16.40;65.50;;;;;;4983797;28;20057;-50
2023/10/05 00:08:10;;;;;;;6.22;3.25;;;16.50;65.60;;;;;;4988692;28;20070;-50
2023/10/05 00:10:42;;;;;;;4.40;2.58;;;16.40;65.70;;;;;;4986271;28;20126;-51
2023/10/05 00:13:24;;;;;;;7.55;2.90;;;16.50;65.70;;;;;;4989613;28;20061;-48
2023/10/05 00:15:56;;;;;;;6.93;2.70;;;16.40;65.80;;;;;;4989118;28;20045;-51
2023/10/05 00:18:44;;;;;;;8.93;2.20;;;16.50;65.80;;;;;;4984118;28;20104;-51
2023/10/05 00:21:22;;;;;;;9.00;2.63;;;16.50;65.80;;;;;;4985626;28;20049;-51
2023/10/05 00:24:00;;;;;;;5.28;2.10;;;16.50;65.70;;;;;;4988227;28;20050;-51
2023/10/05 00:26:40;;;;;;;4.78;2.35;;;16.50;65.80;;;;;;4989015;28;20571;-49
2023/10/05 00:29:28;;;;;;;7.10;3.10;;;16.50;65.80;;;;;;4982402;28;20539;-49
2023/10/05 00:32:06;;;;;;;7.22;2.65;;;16.50;65.90;;;;;;4989789;28;20073;-49
2023/10/05 00:34:43;;;;;;;4.35;2.28;;;16.50;66.00;;;;;;4987790;28;20052;-51
2023/10/05 00:37:25;;;;;;;4.88;2.20;;;16.50;65.70;;;;;;4983965;28;20042;-47
2023/10/05 00:39:59;;;;;;;7.57;2.60;;;16.50;65.70;;;;;;4984326;28;20038;-49
2023/10/05 00:42:35;;;;;;;6.68;2.65;;;16.50;65.80;;;;;;4982651;28;20046;-51
2023/10/05 00:45:25;;;;;;;5.72;2.53;;;16.50;65.80;;;;;;4990351;28;20652;-48
2023/10/05 00:48:13;;;;;;;4.72;1.98;;;16.50;65.80;;;;;;4985838;28;20050;-48
2023/10/05 00:50:48;;;;;;;5.68;2.85;;;16.60;65.90;;;;;;4991425;28;20058;-49
2023/10/05 00:53:27;;;;;;;7.27;2.33;;;16.60;65.90;;;;;;4991359;28;20046;-48
2023/10/05 00:56:22;;;;;;;3.92;2.25;;;16.60;65.80;;;;;;4992482;28;20285;-50
2023/10/05 00:58:56;;;;;;;4.60;1.80;;;16.60;65.90;;;;;;4985942;28;20105;-49
2023/10/05 01:01:54;;;;;;;3.90;2.22;;;16.60;65.90;;;;;;4993652;28;20049;-50
2023/10/05 01:04:53;;;;;;;11.68;3.20;;;16.60;65.80;;;;;;4991497;28;20512;-51
2023/10/05 01:07:49;;;;;;;6.53;2.50;;;16.60;65.70;;;;;;4985290;28;20150;-50
2023/10/05 01:10:42;;;;;;;;;;;16.70;65.80;;;;;;4983324;28;20038;-48
2023/10/05 01:13:49;;;;;;;4.90;1.75;;;16.70;65.70;;;;;;4986258;28;20384;-48
2023/10/05 01:16:32;;;;;;;5.45;2.53;;;16.70;65.60;;;;;;4989332;28;20038;-50
2023/10/05 01:19:13;;;;;;;5.90;2.00;;;16.70;65.60;;;;;;4983573;28;20042;-51
2023/10/05 01:21:46;;;;;;;4.25;2.08;;;16.60;65.60;;;;;;4990919;28;20050;-49
2023/10/05 01:24:25;;;;;;;8.98;2.28;;;16.60;65.70;;;;;;4992204;28;20045;-50
2023/10/05 01:26:59;;;;;;;4.20;1.70;;;16.60;65.70;;;;;;4990075;28;20046;-50
2023/10/05 01:29:40;;;;;;;5.05;2.55;;;16.60;65.80;;;;;;4990643;28;20042;-49
2023/10/05 01:32:15;;;;;;;4.07;2.35;;;16.60;65.80;;;;;;4986807;28;20042;-48
2023/10/05 01:34:53;;;;;;;4.32;2.53;;;16.60;65.80;;;;;;4990490;28;20050;-51
2023/10/05 01:37:40;;;;;;;6.40;2.47;;;16.60;65.90;;;;;;4986913;28;20046;-47
2023/10/05 01:40:20;;;;;;;7.00;2.33;;;16.60;65.80;;;;;;4979443;28;20038;-49
2023/10/05 01:43:02;;;;;;;4.90;2.10;;;16.70;65.80;;;;;;4991643;28;20533;-49
2023/10/05 01:45:38;;;;;;;4.22;2.03;;;16.60;65.90;;;;;;4992617;28;20046;-48
2023/10/05 01:48:30;;;;;;;3.30;1.83;;;16.60;65.90;;;;;;4979918;28;20053;-47
2023/10/05 01:51:15;;;;;;;3.58;1.83;;;16.60;65.80;;;;;;4989635;28;20532;-48
2023/10/05 01:53:45;;;;;;;7.97;2.05;;;16.60;66.00;;;;;;4989985;28;20137;-49
2023/10/05 01:56:24;;;;;;;3.63;1.80;;;16.60;65.90;;;;;;4990565;28;20065;-49
2023/10/05 01:59:06;;;;;;;5.35;2.17;;;16.60;65.90;;;;;;4989056;28;20043;-48
2023/10/05 02:01:48;;;;;;;10.25;2.30;;;16.60;65.90;;;;;;4989942;28;20601;-49
2023/10/05 02:04:38;;;;;;;3.92;1.67;;;16.60;66.00;;;;;;4991499;28;20078;-50
2023/10/05 02:07:15;;;;;;;5.32;2.08;;;16.60;65.90;;;;;;4990029;28;20038;-49
2023/10/05 02:10:22;;;;;;;3.75;1.83;;;16.60;66.00;;;;;;4981617;28;20472;-49
2023/10/05 02:13:01;;;;;;;8.18;2.05;;;16.60;66.00;;;;;;4988113;28;20062;-49
2023/10/05 02:15:52;;;;;;;4.10;1.95;;;16.50;65.90;;;;;;4990203;28;20054;-49
2023/10/05 02:18:31;;;;;;;3.47;2.00;;;16.60;66.10;;;;;;4984119;28;20104;-49
2023/10/05 02:21:24;;;;;;;4.93;1.70;;;16.50;66.00;;;;;;4991017;28;20043;-51
2023/10/05 02:23:53;;;;;;;6.05;1.80;;;16.50;66.10;;;;;;4982883;28;20454;-48
2023/10/05 02:26:24;;;;;;;4.65;2.13;;;16.50;66.00;;;;;;4987878;28;20775;-48
2023/10/05 02:32:10;;;;;;;4.43;1.88;;;16.50;66.10;;;;;;4982853;28;20108;-50
2023/10/05 02:34:59;;;;;;;4.95;2.00;;;16.50;66.10;;;;;;5002901;28;20043;-48
2023/10/05 02:37:53;;;;;;;8.90;1.98;;;16.50;66.10;;;;;;4990808;28;20459;-51
2023/10/05 02:40:45;;;;;;;4.78;1.90;;;16.50;66.30;;;;;;4987050;28;20046;-51
2023/10/05 02:43:41;;;;;;;6.82;1.98;;;16.50;66.30;;;;;;4986603;28;20053;-48
2023/10/05 02:46:24;;;;;;;3.63;1.70;;;16.50;66.20;;;;;;4991408;28;20057;-47
2023/10/05 02:49:26;;;;;;;4.57;1.90;;;16.40;66.10;;;;;;4987312;28;20069;-51
2023/10/05 02:52:06;;;;;;;4.47;1.67;;;16.50;66.40;;;;;;4990962;28;20046;-51
2023/10/05 02:54:47;;;;;;;4.22;1.88;;;16.40;66.30;;;;;;4990738;28;20041;-50
2023/10/05 02:57:20;;;;;;;4.35;1.88;;;16.40;66.40;;;;;;4987660;28;20069;-51
2023/10/05 03:00:00;;;;;;;2.65;1.50;;;16.40;66.30;;;;;;4986468;28;20497;-51
2023/10/05 03:02:37;;;;;;;2.95;1.40;;;16.40;66.30;;;;;;4988683;28;20207;-51
2023/10/05 03:05:10;;;;;;;9.05;1.77;;;16.40;66.50;;;;;;4986387;28;20050;-50
2023/10/05 03:07:48;;;;;;;4.57;2.00;;;16.40;66.30;;;;;;4989444;28;20042;-52
2023/10/05 03:10:27;;;;;;;3.97;1.60;;;16.30;66.40;;;;;;4978184;28;20035;-51
2023/10/05 03:13:15;;;;;;;3.70;1.83;;;16.40;66.60;;;;;;4987490;28;20042;-50
2023/10/05 03:16:08;;;;;;;2.85;1.60;;;16.30;66.40;;;;;;4987510;28;20062;-49
2023/10/05 03:18:44;;;;;;;4.75;2.10;;;16.30;66.40;;;;;;4985274;28;20046;-49
2023/10/05 03:21:19;;;;;;;5.78;1.80;;;16.20;66.60;;;;;;4988957;28;20066;-50
2023/10/05 03:23:53;;;;;;;3.58;1.70;;;16.30;66.70;;;;;;4980912;28;20074;-51
2023/10/05 03:26:33;;;;;;;3.80;1.63;;;16.20;66.60;;;;;;4985914;28;20041;-50
2023/10/05 03:29:07;;;;;;;4.15;1.75;;;16.20;66.80;;;;;;4989505;28;20125;-50
2023/10/05 03:31:38;;;;;;;4.88;2.10;;;16.20;66.80;;;;;;4987652;28;20038;-47
2023/10/05 03:34:15;;;;;;;3.42;1.85;;;16.20;66.90;;;;;;4988359;28;20042;-49
2023/10/05 03:37:07;;;;;;;3.22;1.63;;;16.20;67.00;;;;;;4985814;28;20042;-50
2023/10/05 03:42:57;;;;;;;6.10;1.90;;;16.10;66.90;;;;;;4988084;28;20146;-51
2023/10/05 03:45:40;;;;;;;5.82;2.17;;;16.20;67.10;;;;;;4988396;28;20054;-51
2023/10/05 03:48:16;;;;;;;4.38;1.80;;;16.20;67.10;;;;;;4985450;28;20461;-48
2023/10/05 03:50:46;;;;;;;4.75;2.10;;;16.10;67.20;;;;;;4989852;28;20051;-49
2023/10/05 03:53:28;;;;;;;4.88;2.35;;;16.10;67.10;;;;;;4984294;28;20081;-48
2023/10/05 03:55:57;;;;;;;5.22;2.35;;;16.10;67.20;;;;;;4988202;28;20041;-51
2023/10/05 03:58:52;;;;;;;6.45;2.42;;;16.10;67.10;;;;;;4985650;28;20394;-49
2023/10/05 04:01:28;;;;;;;7.28;2.83;;;16.10;67.20;;;;;;4987849;28;20046;-51
2023/10/05 04:04:12;;;;;;;6.57;2.40;;;16.10;67.40;;;;;;4979018;28;20069;-51
2023/10/05 04:06:51;;;;;;;4.72;2.20;;;16.10;67.20;;;;;;4987423;28;20070;-48
2023/10/05 04:09:28;;;;;;;4.18;1.80;;;16.10;67.20;;;;;;4981540;28;20420;-51
2023/10/05 04:15:01;;;;;;;4.53;1.95;;;16.00;67.50;;;;;;4986161;28;20043;-51
2023/10/05 04:17:38;;;;;;;5.10;2.88;;;16.00;67.40;;;;;;4989449;28;20042;-51
2023/10/05 04:23:25;;;;;;;4.38;1.73;;;16.00;67.60;;;;;;4980165;28;20056;-49
2023/10/05 04:26:32;;;;;;;5.13;1.90;;;15.90;67.50;;;;;;4988067;28;20065;-49
2023/10/05 04:29:21;;;;;;;4.93;1.98;;;15.90;67.50;;;;;;4992926;28;20181;-49
2023/10/05 04:31:57;;;;;;;3.58;1.80;;;15.90;67.60;;;;;;4990745;28;20042;-50
2023/10/05 04:34:36;;;;;;;3.33;2.13;;;15.90;67.90;;;;;;4992444;28;20097;-52
2023/10/05 04:37:11;;;;;;;7.53;2.45;;;15.90;67.80;;;;;;4993121;28;20053;-47
2023/10/05 04:39:43;;;;;;;5.50;2.45;;;15.90;67.90;;;;;;4984634;28;20046;-50
2023/10/05 04:42:16;;;;;;;6.53;2.10;;;15.80;67.80;;;;;;4990346;28;20050;-51
2023/10/05 04:45:14;;;;;;;6.30;2.28;;;15.80;67.90;;;;;;4992836;28;20189;-50
2023/10/05 04:47:58;;;;;;;7.25;3.95;;;15.80;67.90;;;;;;4986092;28;20105;-51
2023/10/05 04:50:27;;;;;;;5.38;2.00;;;15.80;67.90;;;;;;4984559;28;20039;-49
2023/10/05 04:53:00;;;;;;;7.63;2.00;;;15.80;68.00;;;;;;4982696;28;20046;-48
2023/10/05 04:55:41;;;;;;;5.60;1.80;;;15.80;68.10;;;;;;4981077;28;20063;-49
2023/10/05 04:58:30;;;;;;;6.50;2.28;;;15.80;68.10;;;;;;4983453;28;20117;-47
2023/10/05 05:04:13;;;;;;;4.47;1.88;;;15.80;68.20;;;;;;4907481;29;20091;-48
2023/10/05 05:06:42;;;;;;;7.97;2.05;;;15.80;68.00;;;;;;5001520;23;20424;-50
2023/10/05 05:09:12;;;;;;;4.63;2.65;;;15.80;68.10;;;;;;4980791;28;20129;-48
2023/10/05 05:11:40;;;;;;;4.43;2.10;;;15.80;68.20;;;;;;4985793;28;20145;-50
2023/10/05 05:14:07;;;;;;;4.15;1.80;;;15.80;68.20;;;;;;4991953;28;20037;-49
2023/10/05 05:16:35;;;;;;;5.47;2.03;;;15.80;68.30;;;;;;4992509;28;20068;-49
2023/10/05 05:19:02;;;;;;;6.85;2.38;;;15.80;68.40;;;;;;4989008;28;20092;-51
2023/10/05 05:21:31;;;;;;;4.25;2.00;;;15.80;68.40;;;;;;4991994;28;20057;-49
2023/10/05 05:23:58;;;;;;;6.13;2.63;;;15.70;68.40;;;;;;4983394;28;20113;-49
2023/10/05 05:26:25;;;;;;;5.93;2.20;;;15.80;68.50;;;;;;4985570;28;20066;-49
2023/10/05 05:28:53;;;;;;;5.07;2.45;;;15.80;68.50;;;;;;4984612;28;20058;-51
2023/10/05 05:31:21;;;;;;;4.88;2.50;;;15.80;68.60;;;;;;4984979;28;20692;-49
2023/10/05 05:33:48;;;;;;;5.70;2.35;;;15.80;68.60;;;;;;4988745;28;20528;-52
2023/10/05 05:36:18;;;;;;;6.18;1.90;;;15.70;68.70;;;;;;4987587;28;20077;-52
2023/10/05 05:38:47;;;;;;;5.90;1.73;;;15.70;68.80;;;;;;4988482;28;20038;-49
2023/10/05 05:41:16;;;;;;;7.22;3.17;;;15.80;68.70;;;;;;4990471;28;20133;-49
2023/10/05 05:43:43;;;;;;;9.32;2.30;;;15.80;68.80;;;;;;4988726;28;20124;-49
2023/10/05 05:46:16;;;;;;;5.78;2.22;;;15.80;68.80;;;;;;4991333;28;20117;-49
2023/10/05 05:48:48;;;;;;;4.45;1.83;;;15.80;68.80;;;;;;4988570;28;20060;-51
2023/10/05 05:51:21;;;;;;;3.38;1.70;;;15.80;68.90;;;;;;4991131;28;20121;-53
2023/10/05 05:53:48;;;;;;;;;;;15.80;68.90;;;;;;4988528;28;20042;-49
2023/10/05 05:56:19;;;;;;;6.82;2.10;;;15.90;68.90;;;;;;4988498;28;20024;-48
2023/10/05 05:58:50;;;;;;;9.75;2.78;;;15.80;68.40;;;;;;4986790;28;20038;-49
2023/10/05 06:01:20;;;;;;;6.40;2.35;;;15.90;68.70;;;;;;4986621;28;20049;-50
2023/10/05 06:03:49;;;;;;;4.70;1.63;;;15.80;68.70;;;;;;4988951;28;20069;-50
2023/10/05 06:06:16;;;;;;;9.55;2.40;;;15.80;68.70;;;;;;4985362;28;20061;-50
2023/10/05 06:08:44;;;;;;;6.93;2.20;;;15.80;68.80;;;;;;4988067;28;20061;-52
2023/10/05 06:11:12;;;;;;;8.38;2.40;;;15.80;68.90;;;;;;4989410;28;20129;-53
2023/10/05 06:13:40;;;;;;;4.60;2.00;;;15.90;69.10;;;;;;4987083;28;20045;-54
2023/10/05 06:16:10;;;;;;;3.20;1.83;;;15.90;69.10;;;;;;4985047;28;20069;-53
2023/10/05 06:18:40;;;;;;;4.22;2.10;;;15.90;69.10;;;;;;4985817;28;20419;-49
2023/10/05 06:21:08;;;;;;;4.57;2.55;;;15.90;69.10;;;;;;4984820;28;20074;-53
2023/10/05 06:23:37;;;;;;;4.43;2.03;;;15.90;69.70;;;;;;4985289;28;20129;-49
2023/10/05 06:26:06;;;;;;;9.55;2.42;;;15.90;69.10;;;;;;4990869;28;20054;-53
2023/10/05 06:28:33;;;;;;;3.03;2.42;;;16.00;69.20;;;;;;4990368;28;20045;-51
2023/10/05 06:31:01;;;;;;;5.47;2.30;;;16.00;69.20;;;;;;4992153;28;20042;-51
2023/10/05 06:33:28;;;;;;;6.00;2.55;;;16.00;69.20;;;;;;4987260;28;20049;-54
2023/10/05 06:35:57;;;;;;;4.30;2.20;;;16.00;69.80;;;;;;4991449;28;20047;-53
2023/10/05 06:38:24;;;;;;;5.63;1.90;;;16.10;69.20;;;;;;4988435;28;20121;-53
2023/10/05 06:40:51;;;;;;;4.10;1.83;;;16.10;69.10;;;;;;4986885;28;20093;-54
2023/10/05 06:43:18;;;;;;;6.30;2.50;;;16.10;69.00;;;;;;4988405;28;20073;-50
2023/10/05 06:45:47;;;;;;;3.22;1.90;;;16.20;69.00;;;;;;4989614;28;20066;-53
2023/10/05 06:48:14;;;;;;;7.35;2.75;;;16.20;69.10;;;;;;4986250;28;20042;-51
2023/10/05 06:50:43;;;;;;;9.27;2.00;;;16.20;69.10;;;;;;4990114;28;20034;-49
2023/10/05 06:53:11;;;;;;;6.03;2.80;;;16.20;69.10;;;;;;4990473;28;20042;-53
2023/10/05 06:55:39;;;;;;;3.28;1.92;;;16.30;69.00;;;;;;4986848;28;20048;-52
2023/10/05 06:58:05;;;;;;;8.57;3.70;;;16.30;69.00;;;;;;4987837;28;20046;-50
2023/10/05 07:00:32;;;;;;;5.75;2.33;;;16.40;69.00;;;;;;4988862;28;20100;-52
2023/10/05 07:03:05;;;;;;;5.55;2.20;;;16.40;69.00;;;;;;4988463;28;20058;-53
2023/10/05 07:05:32;;;;;;;5.10;2.10;;;16.40;69.00;;;;;;4988504;28;20512;-51
2023/10/05 07:08:01;;;;;;;4.95;2.03;;;16.40;68.80;;;;;;4987968;28;20041;-52
2023/10/05 07:10:28;;;;;;;10.63;2.40;;;16.50;68.80;;;;;;4987173;28;20133;-54
2023/10/05 07:12:55;;;;;;;8.45;2.60;;;16.50;68.80;;;;;;4989506;28;20060;-51
2023/10/05 07:15:22;;;;;;;8.20;2.45;;;16.50;68.70;;;;;;4985818;28;20074;-54
2023/10/05 07:17:52;;;;;;;6.03;2.72;;;16.60;68.70;;;;;;4984418;28;20121;-52
2023/10/05 07:20:19;;;;;;;4.63;2.25;;;16.60;68.70;;;;;;4987694;28;20074;-49
2023/10/05 07:22:49;;;;;;;6.50;2.60;;;16.60;68.60;;;;;;4987757;28;20057;-50
2023/10/05 07:25:17;;;;;;;4.85;2.08;;;16.70;68.60;;;;;;4991628;28;20093;-50
2023/10/05 07:27:47;;;;;;;4.20;2.30;;;16.70;68.60;;;;;;4987527;28;20109;-49
2023/10/05 07:30:14;;;;;;;5.32;2.05;;;16.70;68.50;;;;;;4989286;28;20097;-50
2023/10/05 07:32:47;;;;;;;3.75;2.08;;;16.70;68.40;;;;;;4985507;28;20046;-50
2023/10/05 07:35:32;;;;;;;6.63;2.03;;;16.80;68.50;;;;;;4990593;28;20041;-50
2023/10/05 07:38:00;;;;;;;4.90;1.98;;;16.80;68.40;;;;;;4989532;28;20054;-49
2023/10/05 07:40:27;;;;;;;4.40;2.00;;;16.80;68.40;;;;;;4984728;28;20049;-53
2023/10/05 07:42:54;;;;;;;6.40;2.55;;;16.90;68.50;;;;;;4986460;28;20475;-53
2023/10/05 07:45:22;;;;;;;7.18;2.10;;;16.90;68.50;;;;;;4987464;28;20125;-51
2023/10/05 07:47:49;;;;;;;6.25;2.17;;;16.90;68.40;;;;;;4984721;28;20045;-51
2023/10/05 07:50:18;;;;;;;4.65;2.05;;;16.90;68.30;;;;;;4984193;28;20567;-53
2023/10/05 07:52:48;;;;;;;6.63;2.10;;;17.00;68.40;;;;;;4982290;28;20038;-50
2023/10/05 07:55:15;;;;;;;5.53;2.10;;;17.10;68.30;;;;;;4982568;28;20125;-54
2023/10/05 07:57:42;;;;;;;4.30;2.10;;;17.10;68.30;;;;;;4984283;28;20046;-52
2023/10/05 08:00:13;;;;;;;5.53;2.25;;;17.20;68.20;;;;;;4982725;28;20257;-53
2023/10/05 08:02:40;;;;;;;4.70;2.20;;;17.20;68.80;;;;;;4984526;28;20062;-54
2023/10/05 08:05:09;;;;;;;6.00;2.55;;;17.20;68.00;;;;;;4985152;28;20039;-54
2023/10/05 08:07:36;;;;;;;3.42;2.03;;;17.30;67.90;;;;;;4989397;28;20046;-54
2023/10/05 08:10:04;;;;;;;6.20;2.50;;;17.30;67.90;;;;;;4982129;28;20038;-52
2023/10/05 08:12:31;;;;;;;3.58;2.03;;;17.30;67.80;;;;;;4989138;28;20047;-54
2023/10/05 08:15:01;;;;;;;7.65;2.85;;;17.40;67.90;;;;;;4982413;28;20536;-55
2023/10/05 08:17:28;;;;;;;4.53;2.30;;;17.40;67.90;;;;;;4981121;28;20050;-53
2023/10/05 08:19:58;;;;;;;6.00;2.33;;;17.50;67.90;;;;;;4983370;28;20066;-53
2023/10/05 08:22:24;;;;;;;5.07;2.30;;;17.50;67.90;;;;;;4982517;28;20472;-54
2023/10/05 08:24:57;;;;;;;7.35;2.45;;;17.50;67.70;;;;;;4990005;28;20740;-53
2023/10/05 08:27:31;;;;;;;5.28;2.13;;;17.60;67.40;;;;;;4986717;28;20059;-54
2023/10/05 08:30:00;;;;;;;3.90;2.00;;;17.70;67.30;;;;;;4984575;28;20050;-54
2023/10/05 08:32:33;;;;;;;4.68;2.92;;;17.70;67.20;;;;;;4981386;28;20086;-52
2023/10/05 08:35:07;;;;;;;7.55;2.20;;;17.70;67.60;;;;;;4989029;28;20053;-54
2023/10/05 08:37:37;;;;;;;4.38;2.00;;;17.80;67.00;;;;;;4977649;28;20509;-52
2023/10/05 08:40:27;;;;;;;5.72;2.50;;;17.80;66.70;;;;;;5000106;28;20039;-53
2023/10/05 08:42:55;;;;;;;3.38;1.75;;;17.80;66.50;;;;;;4989059;28;20046;-52
2023/10/05 08:45:23;;;;;;;7.18;2.92;;;17.90;66.80;;;;;;4987485;28;20085;-53
2023/10/05 08:47:55;;;;;;;5.57;1.88;;;17.90;66.70;;;;;;4987897;28;20530;-52
2023/10/05 08:50:22;;;;;;;;;;;18.00;66.80;;;;;;4985347;28;20125;-49
2023/10/05 08:52:49;;;;;;;3.65;2.15;;;18.10;66.90;;;;;;4988620;28;19925;-51
2023/10/05 08:55:19;;;;;;;4.38;2.60;;;18.10;66.50;;;;;;4983812;28;20078;-53
2023/10/05 08:57:52;;;;;;;4.35;1.83;;;18.20;66.70;;;;;;4986127;28;20090;-51
2023/10/05 09:00:38;;;;;;;4.13;2.22;;;18.30;66.50;;;;;;4984994;28;20125;-52
2023/10/05 09:03:28;;;;;;;4.88;2.53;;;18.30;66.30;;;;;;4988898;28;20500;-52
2023/10/05 09:06:24;;;;;;;6.03;2.13;;;18.40;66.20;;;;;;4991535;28;20044;-53
2023/10/05 09:08:53;;;;;;;4.70;2.05;;;18.50;65.90;;;;;;4984919;28;20117;-54
2023/10/05 09:11:31;;;;;;;5.60;2.22;;;18.50;66.00;;;;;;4992226;28;20042;-52
2023/10/05 09:14:13;;;;;;;8.27;2.00;;;18.60;66.00;;;;;;4993266;28;20089;-49
2023/10/05 09:16:46;;;;;;;5.15;2.03;;;18.70;65.40;;;;;;4992517;28;20050;-53
2023/10/05 09:19:25;;;;;;;8.43;2.03;;;18.70;65.30;;;;;;4989087;28;20046;-53
2023/10/05 09:24:26;;;;;;;6.40;3.05;;;18.90;64.90;;;;;;4993206;28;20085;-52
2023/10/05 09:26:57;;;;;;;3.42;2.00;;;18.90;64.60;;;;;;4992351;28;20133;-53
2023/10/05 09:29:30;;;;;;;7.32;2.35;;;19.00;64.40;;;;;;4984932;28;20046;-54
2023/10/05 09:32:00;;;;;;;6.65;2.20;;;19.00;64.30;;;;;;4989490;28;20038;-52
2023/10/05 09:34:49;;;;;;;5.70;2.38;;;19.00;64.40;;;;;;4988318;28;20070;-54
2023/10/05 09:37:18;;;;;;;5.45;2.25;;;19.10;64.20;;;;;;4987467;28;20393;-52
2023/10/05 09:39:55;;;;;;;5.60;2.17;;;19.10;64.30;;;;;;4987529;28;20130;-52
2023/10/05 09:42:26;;;;;;;3.97;2.25;;;19.20;64.50;;;;;;4992043;28;20050;-54
2023/10/05 09:44:59;;;;;;;4.45;2.05;;;19.30;63.90;;;;;;4990516;28;20092;-53
2023/10/05 09:47:32;;;;;;;4.65;1.73;;;19.30;63.80;;;;;;4986287;28;20139;-55
2023/10/05 09:50:10;;;;;;;7.13;2.45;;;19.30;64.10;;;;;;4985403;28;20125;-54
2023/10/05 09:52:38;;;;;;;4.60;1.73;;;19.40;63.30;;;;;;4991274;28;20092;-53
2023/10/05 09:55:08;;;;;;;4.60;1.70;;;19.40;63.20;;;;;;4987555;28;20393;-49
2023/10/05 09:57:41;;;;;;;;;;;19.50;62.80;;;;;;4989570;28;20574;-53
2023/10/05 10:02:56;;;;;;;4.50;2.13;;;19.60;63.50;;;;;;4991134;28;20385;-50
2023/10/05 10:05:29;;;;;;;2.47;1.75;;;19.60;62.50;;;;;;4980261;28;20523;-52
2023/10/05 10:08:09;;;;;;;4.70;2.13;;;19.60;62.50;;;;;;4989510;28;20049;-49
2023/10/05 10:10:51;;;;;;;8.52;3.00;;;19.60;62.80;;;;;;4982043;28;20899;-49
2023/10/05 10:13:22;;;;;;;3.65;1.35;;;19.60;62.30;;;;;;4989961;28;20064;-51
2023/10/05 10:15:53;;;;;;;4.82;1.58;;;19.60;62.40;;;;;;4984820;28;20050;-49
2023/10/05 10:18:37;;;;;;;;;;;19.60;62.00;;;;;;4987202;28;20113;-50
2023/10/05 10:21:12;;;;;;;10.02;2.10;;;19.70;62.50;;;;;;4989495;28;20019;-53
2023/10/05 10:23:39;;;;;;;4.18;1.90;;;19.70;62.30;;;;;;4986534;28;20074;-49
2023/10/05 10:26:16;;;;;;;6.70;2.50;;;19.70;62.00;;;;;;4989636;28;20129;-52
2023/10/05 10:28:56;;;;;;;4.57;2.20;;;19.70;61.90;;;;;;4989421;28;20051;-52
2023/10/05 10:31:42;;;;;;;3.13;2.13;;;19.60;61.80;;;;;;4989584;28;20065;-50
2023/10/05 10:34:38;;;;;;;8.85;2.30;;;19.60;62.10;;;;;;4981922;28;20044;-52
2023/10/05 10:37:06;;;;;;;10.07;3.10;;;19.60;61.90;;;;;;4985331;28;20038;-49
2023/10/05 10:39:38;;;;;;;3.28;2.05;;;19.70;62.20;;;;;;4985945;28;20066;-52
2023/10/05 10:42:18;;;;;;;3.72;2.10;;;19.70;62.00;;;;;;4990395;28;20053;-48
2023/10/05 10:47:22;;;;;;;3.67;1.88;;;19.70;62.40;;;;;;4983907;28;20081;-53
2023/10/05 10:50:14;;;;;;;6.30;2.22;;;19.80;62.10;;;;;;4988346;28;20070;-54
2023/10/05 10:52:43;;;;;;;4.20;2.17;;;19.80;62.70;;;;;;4985408;28;20042;-54
2023/10/05 10:55:21;;;;;;;5.55;2.28;;;19.80;62.20;;;;;;4985243;28;20046;-53
2023/10/05 10:57:52;;;;;;;5.95;1.67;;;19.90;62.10;;;;;;4984759;28;20105;-51
2023/10/05 11:03:11;;;;;;;3.80;2.10;;;20.00;61.60;;;;;;4973932;28;20117;-53
2023/10/05 11:05:51;;;;;;;5.13;1.93;;;20.10;61.40;;;;;;4943881;28;1020882;-52
2023/10/05 11:08:21;;;;;;;3.53;1.83;;;20.10;61.30;;;;;;4976545;28;20449;-50
2023/10/05 11:11:19;;;;;;;5.07;1.88;;;20.10;61.30;;;;;;4981202;28;20438;-52
2023/10/05 11:13:56;;;;;;;5.28;1.75;;;20.20;60.70;;;;;;4982514;28;20134;-50
2023/10/05 11:16:43;;;;;;;3.60;1.50;;;20.30;61.10;;;;;;4982775;28;20038;-50
2023/10/05 11:19:15;;;;;;;6.15;1.85;;;20.30;61.20;;;;;;4981339;28;20046;-50
2023/10/05 11:22:04;;;;;;;4.47;1.95;;;20.40;60.50;;;;;;4986736;28;20049;-52
2023/10/05 11:24:32;;;;;;;8.13;1.88;;;20.40;60.70;;;;;;4982403;28;20043;-51
2023/10/05 11:29:28;;;;;;;6.20;2.17;;;20.50;60.50;;;;;;4988502;28;20508;-52
2023/10/05 11:32:03;;;;;;;4.32;2.15;;;20.50;60.40;;;;;;4990276;28;20054;-51
2023/10/05 11:34:55;;;;;;;4.30;1.80;;;20.60;60.40;;;;;;4988626;28;20416;-53
2023/10/05 11:37:45;;;;;;;8.30;2.63;;;20.60;59.80;;;;;;4980280;28;20042;-52
2023/10/05 11:40:23;;;;;;;5.97;1.80;;;20.70;59.90;;;;;;4979088;28;20067;-53
2023/10/05 11:42:50;;;;;;;8.30;1.83;;;20.60;59.50;;;;;;4981507;28;20048;-49
2023/10/05 11:45:18;;;;;;;4.45;1.70;;;20.60;59.30;;;;;;4980491;28;20051;-53
2023/10/05 11:47:53;;;;;;;6.40;2.33;;;20.60;59.20;;;;;;4983926;28;20467;-53
2023/10/05 11:50:33;;;;;;;3.92;2.03;;;20.60;59.10;;;;;;4981186;28;20130;-51
2023/10/05 11:53:07;;;;;;;5.85;2.20;;;20.60;59.50;;;;;;4975450;28;20116;-52
2023/10/05 11:55:35;;;;;;;3.35;2.25;;;20.60;59.50;;;;;;4981172;28;20396;-49
2023/10/05 11:58:02;;;;;;;2.80;1.52;;;20.70;60.00;;;;;;4983553;28;20121;-50
2023/10/05 12:00:34;;;;;;;2.42;1.58;;;20.70;59.70;;;;;;4983132;28;20046;-53
2023/10/05 12:03:02;;;;;;;7.03;2.70;;;20.70;59.70;;;;;;4975513;28;20568;-51
2023/10/05 12:05:30;;;;;;;8.68;2.22;;;20.70;59.30;;;;;;4976632;28;20122;-52
2023/10/05 12:07:59;;;;;;;4.90;1.83;;;20.70;58.80;;;;;;4978548;28;20121;-50
2023/10/05 12:10:31;;;;;;;3.67;1.73;;;20.80;58.70;;;;;;4981058;28;20043;-50
2023/10/05 12:13:02;;;;;;;2.88;1.42;;;20.80;59.10;;;;;;4976039;28;20042;-53
2023/10/05 12:15:32;;;;;;;2.53;1.20;;;20.80;59.20;;;;;;4979576;28;20051;-49
2023/10/05 12:17:59;;;;;;;5.38;2.25;;;20.80;58.60;;;;;;4979922;28;20047;-50
2023/10/05 12:20:27;;;;;;;1.73;1.27;;;20.80;58.50;;;;;;4983261;28;20073;-51
2023/10/05 12:22:56;;;;;;;4.05;1.90;;;20.80;58.80;;;;;;4976965;28;20326;-53
2023/10/05 12:25:27;;;;;;;5.43;2.15;;;20.80;58.20;;;;;;4980597;28;20110;-50
2023/10/05 12:27:57;;;;;;;4.20;2.42;;;20.80;57.90;;;;;;4982048;28;20053;-51
2023/10/05 12:30:24;;;;;;;3.20;1.13;;;20.90;57.70;;;;;;4985137;28;20074;-50
2023/10/05 12:32:51;;;;;;;4.70;1.60;;;20.90;57.80;;;;;;4986337;28;20042;-53
2023/10/05 12:35:18;;;;;;;5.30;1.75;;;21.00;58.40;;;;;;4976897;28;20050;-50
2023/10/05 12:37:46;;;;;;;3.28;1.25;;;21.00;58.70;;;;;;4986600;28;20073;-48
2023/10/05 12:40:26;;;;;;;4.07;1.30;;;21.10;58.00;;;;;;4980800;28;20463;-51
2023/10/05 12:42:53;;;;;;;4.75;1.33;;;21.20;57.30;;;;;;4979363;28;20050;-50
2023/10/05 12:45:23;;;;;;;3.85;1.80;;;21.30;56.80;;;;;;4984837;28;20050;-52
2023/10/05 12:47:54;;;;;;;3.03;1.30;;;21.30;56.20;;;;;;4987058;28;20046;-52
2023/10/05 12:50:25;;;;;;;3.70;1.63;;;21.40;56.30;;;;;;4987442;28;20061;-50
2023/10/05 12:52:52;;;;;;;2.63;1.80;;;21.40;56.20;;;;;;4985454;28;20065;-53
2023/10/05 12:55:22;;;;;;;3.33;1.55;;;21.40;55.80;;;;;;4983923;28;20085;-49
2023/10/05 12:57:53;;;;;;;3.38;1.42;;;21.50;55.70;;;;;;4984262;28;20042;-50
2023/10/05 13:00:28;;;;;;;5.18;2.05;;;21.50;55.10;;;;;;4989060;28;20042;-51
2023/10/05 13:02:56;;;;;;;3.53;1.60;;;21.50;55.10;;;;;;4984359;28;20408;-48
2023/10/05 13:05:31;;;;;;;3.55;1.52;;;21.50;55.40;;;;;;4980089;28;20070;-53
2023/10/05 13:08:02;;;;;;;3.40;2.33;;;21.60;55.70;;;;;;4981927;28;20050;-51
2023/10/05 13:10:32;;;;;;;4.93;1.20;;;21.60;56.00;;;;;;4982203;28;20524;-52
2023/10/05 13:13:00;;;;;;;3.17;1.50;;;21.60;55.70;;;;;;4989854;28;20065;-53
2023/10/05 13:15:32;;;;;;;4.38;1.60;;;21.70;56.00;;;;;;4982663;28;20043;-53
2023/10/05 13:18:18;;;;;;;3.58;1.60;;;21.80;56.10;;;;;;4985053;28;20144;-52
2023/10/05 13:20:49;;;;;;;5.68;1.40;;;21.90;56.10;;;;;;4987982;28;20038;-53
2023/10/05 13:23:24;;;;;;;2.63;1.30;;;22.10;55.00;;;;;;4987978;28;20108;-50
2023/10/05 13:25:52;;;;;;;5.93;1.83;;;22.20;54.50;;;;;;4984885;28;20038;-52
2023/10/05 13:28:21;;;;;;;3.60;1.10;;;22.30;53.90;;;;;;4988377;28;20054;-50
2023/10/05 13:30:53;;;;;;;3.90;1.15;;;22.30;53.90;;;;;;4992726;28;20050;-53
2023/10/05 13:33:28;;;;;;;2.47;1.35;;;22.40;53.70;;;;;;4986533;28;20031;-53
2023/10/05 13:36:06;;;;;;;4.43;1.38;;;22.40;53.30;;;;;;4986122;28;20551;-54
2023/10/05 13:38:36;;;;;;;2.30;1.23;;;22.50;53.10;;;;;;4986795;28;20465;-50
2023/10/05 13:43:36;;;;;;;4.18;1.60;;;22.70;53.40;;;;;;4987427;28;20046;-53
2023/10/05 13:46:12;;;;;;;2.47;1.15;;;22.80;52.70;;;;;;4991103;28;20074;-54
2023/10/05 13:48:41;;;;;;;4.97;1.60;;;22.90;52.50;;;;;;4988137;28;20501;-54
2023/10/05 13:51:15;;;;;;;3.53;1.10;;;23.20;52.60;;;;;;4982998;28;20083;-51
2023/10/05 13:53:53;;;;;;;5.57;1.50;;;23.40;51.80;;;;;;4982219;28;20134;-50
2023/10/05 13:56:28;;;;;;;4.60;1.20;;;23.70;51.70;;;;;;4985039;28;20045;-52
2023/10/05 13:59:02;;;;;;;3.85;1.50;;;24.10;51.40;;;;;;4979730;28;20034;-53